Time;durP1;ratioP1;P1;durP2;ratioP2;P2;SDS_P1;SDS_P2;PMS_P1;PMS_P2;Temp;Humidity;BMP_temperature;BMP_pressure;BME280_temperature;BME280_humidity;BME280_pressure;Samples;Min_cycle;Max_cycle;Signal;HPM_P1;HPM_P2
2023/02/10 00:01:04;;;;;;;37.95;16.88;;;;;;;;;;5031648;28;20099;-51
2023/02/10 00:03:32;;;;;;;34.13;15.32;;;;;;;;;;5046452;28;20125;-55
2023/02/10 00:05:58;;;;;;;33.20;16.00;;;;;;;;;;5046427;28;20051;-50
2023/02/10 00:08:25;;;;;;;33.80;15.02;;;;;;;;;;5051991;28;20052;-53
2023/02/10 00:10:52;;;;;;;36.30;16.98;;;;;;;;;;5051272;28;20049;-51
2023/02/10 00:13:19;;;;;;;34.83;18.33;;;;;;;;;;5047869;28;20053;-49
2023/02/10 00:15:46;;;;;;;38.05;17.83;;;;;;;;;;5042620;28;20102;-51
2023/02/10 00:18:14;;;;;;;38.35;17.98;;;;;;;;;;5051765;28;20456;-53
2023/02/10 00:20:42;;;;;;;39.85;17.50;;;;;;;;;;5051792;28;20052;-50
2023/02/10 00:23:09;;;;;;;39.50;18.42;;;;;;;;;;5052974;28;20136;-52
2023/02/10 00:25:39;;;;;;;34.00;16.55;;;;;;;;;;5044139;28;20100;-50
2023/02/10 00:28:06;;;;;;;32.28;15.13;;;;;;;;;;5033148;28;20080;-50
2023/02/10 00:30:34;;;;;;;31.08;15.65;;;;;;;;;;5032403;28;20054;-53
2023/02/10 00:33:01;;;;;;;32.85;16.15;;;;;;;;;;5032706;28;20059;-49
2023/02/10 00:35:29;;;;;;;37.40;16.85;;;;;;;;;;5038316;28;20049;-49
2023/02/10 00:37:57;;;;;;;34.83;16.60;;;;;;;;;;5055289;28;20083;-50
2023/02/10 00:40:24;;;;;;;30.98;16.55;;;;;;;;;;5055742;28;20041;-51
2023/02/10 00:42:53;;;;;;;30.67;15.70;;;;;;;;;;5042489;28;20837;-48
2023/02/10 00:45:20;;;;;;;31.70;15.98;;;;;;;;;;5040933;28;20136;-50
2023/02/10 00:47:49;;;;;;;28.95;14.70;;;;;;;;;;5051276;28;20049;-48
2023/02/10 00:50:15;;;;;;;31.92;16.42;;;;;;;;;;5056564;28;20045;-51
2023/02/10 00:52:44;;;;;;;28.92;16.05;;;;;;;;;;5041964;28;20102;-50
2023/02/10 00:55:11;;;;;;;34.03;17.98;;;;;;;;;;5039846;28;20053;-52
2023/02/10 00:57:38;;;;;;;31.92;15.70;;;;;;;;;;5036600;28;20053;-49
2023/02/10 01:00:06;;;;;;;33.17;15.80;;;;;;;;;;5035322;28;20139;-51
2023/02/10 01:02:33;;;;;;;36.50;16.50;;;;;;;;;;5035104;28;20141;-51
2023/02/10 01:05:00;;;;;;;34.78;17.02;;;;;;;;;;5035104;28;20064;-53
2023/02/10 01:07:28;;;;;;;36.83;17.40;;;;;;;;;;5034939;28;20404;-54
2023/02/10 01:09:57;;;;;;;35.17;16.58;;;;;;;;;;5034872;28;20103;-50
2023/02/10 01:12:24;;;;;;;31.55;15.63;;;;;;;;;;5035223;28;20049;-51
2023/02/10 01:14:51;;;;;;;35.28;15.77;;;;;;;;;;5035326;28;20056;-52
2023/02/10 01:17:19;;;;;;;33.92;15.98;;;;;;;;;;5034590;28;20568;-55
2023/02/10 01:19:47;;;;;;;32.95;16.55;;;;;;;;;;5034307;28;20050;-51
2023/02/10 01:22:14;;;;;;;34.10;17.63;;;;;;;;;;5034490;28;20127;-52
2023/02/10 01:24:41;;;;;;;32.75;16.13;;;;;;;;;;5034934;28;20053;-54
2023/02/10 01:27:09;;;;;;;35.05;17.23;;;;;;;;;;5034285;28;20053;-55
2023/02/10 01:29:36;;;;;;;34.08;18.40;;;;;;;;;;5033968;28;20111;-55
2023/02/10 01:32:03;;;;;;;38.65;18.08;;;;;;;;;;5034336;28;20053;-51
2023/02/10 01:36:57;;;;;;;30.35;16.25;;;;;;;;;;5063724;28;20438;-78
2023/02/10 01:39:24;;;;;;;31.20;16.30;;;;;;;;;;5063592;28;20041;-79
2023/02/10 01:41:50;;;;;;;33.70;15.52;;;;;;;;;;5062273;28;20085;-78
2023/02/10 01:44:54;;;;;;;33.65;17.45;;;;;;;;;;5060264;28;20127;-77
2023/02/10 01:47:25;;;;;;;32.53;15.45;;;;;;;;;;5038529;28;20076;-77
2023/02/10 01:49:52;;;;;;;30.95;15.60;;;;;;;;;;5037856;28;20069;-78
2023/02/10 01:52:23;;;;;;;31.02;15.15;;;;;;;;;;5036577;28;20069;-79
2023/02/10 01:54:55;;;;;;;30.13;15.05;;;;;;;;;;5037708;28;20054;-78
2023/02/10 01:57:22;;;;;;;29.98;13.88;;;;;;;;;;5036439;28;20115;-78
2023/02/10 01:59:49;;;;;;;29.60;15.30;;;;;;;;;;5036662;28;20164;-78
2023/02/10 02:02:18;;;;;;;29.80;15.88;;;;;;;;;;5035027;28;20124;-79
2023/02/10 02:04:50;;;;;;;35.10;16.63;;;;;;;;;;5036275;28;20116;-78
2023/02/10 02:07:18;;;;;;;30.98;15.65;;;;;;;;;;5035090;28;20064;-79
2023/02/10 02:09:46;;;;;;;28.85;14.82;;;;;;;;;;5035844;28;20081;-79
2023/02/10 02:12:20;;;;;;;27.80;15.02;;;;;;;;;;5035124;28;20108;-78
2023/02/10 02:14:55;;;;;;;30.15;15.93;;;;;;;;;;5035840;28;20392;-77
2023/02/10 02:17:29;;;;;;;32.88;15.27;;;;;;;;;;5035662;28;20077;-77
2023/02/10 02:20:41;;;;;;;34.33;15.98;;;;;;;;;;5036898;28;20045;-77
2023/02/10 02:23:24;;;;;;;31.60;14.98;;;;;;;;;;5037410;28;20407;-79
2023/02/10 02:26:22;;;;;;;33.92;16.05;;;;;;;;;;5038573;28;20481;-78
2023/02/10 02:29:07;;;;;;;32.60;16.08;;;;;;;;;;5035437;28;20076;-77
2023/02/10 02:31:53;;;;;;;34.17;16.17;;;;;;;;;;5036737;28;20072;-79
2023/02/10 02:34:26;;;;;;;32.95;15.68;;;;;;;;;;5029392;28;20389;-80
2023/02/10 02:36:57;;;;;;;36.85;16.67;;;;;;;;;;5037345;28;20084;-80
2023/02/10 02:39:24;;;;;;;31.08;15.60;;;;;;;;;;5035715;28;20492;-79
2023/02/10 02:42:08;;;;;;;31.48;16.38;;;;;;;;;;5035389;28;20121;-79
2023/02/10 02:44:36;;;;;;;31.83;15.43;;;;;;;;;;5035139;28;20080;-77
2023/02/10 02:47:13;;;;;;;33.22;15.93;;;;;;;;;;5034714;28;20077;-78
2023/02/10 02:49:46;;;;;;;37.72;16.17;;;;;;;;;;5035547;28;20105;-79
2023/02/10 02:52:15;;;;;;;33.20;16.33;;;;;;;;;;5035169;28;20587;-80
2023/02/10 02:54:47;;;;;;;32.25;16.02;;;;;;;;;;5035794;28;20475;-79
2023/02/10 02:57:18;;;;;;;28.42;14.77;;;;;;;;;;5034199;28;20152;-77
2023/02/10 02:59:50;;;;;;;33.63;16.27;;;;;;;;;;5035211;28;20052;-78
2023/02/10 03:02:20;;;;;;;36.72;17.85;;;;;;;;;;5034512;28;20385;-79
2023/02/10 03:04:48;;;;;;;37.33;17.80;;;;;;;;;;5033898;28;20045;-78
2023/02/10 03:07:15;;;;;;;39.65;17.50;;;;;;;;;;5033872;28;20045;-78
2023/02/10 03:09:43;;;;;;;39.63;18.30;;;;;;;;;;5033882;28;20069;-77
2023/02/10 03:12:12;;;;;;;38.28;18.63;;;;;;;;;;5039701;28;20500;-79
2023/02/10 03:14:38;;;;;;;35.22;17.67;;;;;;;;;;5050835;28;20037;-78
2023/02/10 03:17:05;;;;;;;39.20;19.67;;;;;;;;;;5051459;28;20069;-78
2023/02/10 03:19:33;;;;;;;36.13;18.48;;;;;;;;;;5050133;28;20061;-78
2023/02/10 03:22:00;;;;;;;35.05;16.02;;;;;;;;;;5036321;28;20132;-78
2023/02/10 03:24:27;;;;;;;37.40;16.67;;;;;;;;;;5033599;28;20053;-79
2023/02/10 03:26:53;;;;;;;34.85;17.73;;;;;;;;;;5033585;28;20053;-77
2023/02/10 03:29:20;;;;;;;36.75;17.50;;;;;;;;;;5033554;28;20085;-78
2023/02/10 03:31:47;;;;;;;38.58;17.42;;;;;;;;;;5034182;28;20049;-78
2023/02/10 03:34:13;;;;;;;41.58;17.77;;;;;;;;;;5033953;28;20061;-80
2023/02/10 03:36:41;;;;;;;37.05;17.20;;;;;;;;;;5035770;28;20041;-78
2023/02/10 03:39:08;;;;;;;35.92;16.10;;;;;;;;;;5043670;28;20041;-78
2023/02/10 03:41:35;;;;;;;35.15;17.08;;;;;;;;;;5043308;28;20049;-80
2023/02/10 03:44:01;;;;;;;34.83;16.85;;;;;;;;;;5035536;28;20119;-79
2023/02/10 03:46:28;;;;;;;36.47;17.92;;;;;;;;;;5035654;28;20077;-78
2023/02/10 03:48:55;;;;;;;37.05;16.88;;;;;;;;;;5041612;28;20053;-78
2023/02/10 03:51:22;;;;;;;33.17;16.67;;;;;;;;;;5043877;28;20057;-79
2023/02/10 03:53:50;;;;;;;35.80;15.93;;;;;;;;;;5047138;28;20048;-78
2023/02/10 03:56:16;;;;;;;31.33;15.35;;;;;;;;;;5053027;28;20041;-78
2023/02/10 03:58:43;;;;;;;34.55;16.42;;;;;;;;;;5052545;28;20097;-78
2023/02/10 04:01:11;;;;;;;33.58;15.43;;;;;;;;;;5046759;28;20069;-79
2023/02/10 04:03:38;;;;;;;34.28;17.60;;;;;;;;;;5050000;28;20045;-79
2023/02/10 04:06:05;;;;;;;35.58;16.85;;;;;;;;;;5045857;28;20045;-77
2023/02/10 04:08:31;;;;;;;36.55;16.80;;;;;;;;;;5044246;28;20060;-79
2023/02/10 04:10:59;;;;;;;32.15;15.63;;;;;;;;;;5051474;28;20076;-79
2023/02/10 04:13:26;;;;;;;34.28;17.13;;;;;;;;;;5038443;28;20060;-80
2023/02/10 04:16:01;;;;;;;30.27;14.63;;;;;;;;;;5054575;28;20067;-77
2023/02/10 04:18:28;;;;;;;35.63;15.13;;;;;;;;;;5053786;28;20046;-78
2023/02/10 04:20:55;;;;;;;34.13;15.85;;;;;;;;;;5052684;28;20041;-79
2023/02/10 04:23:22;;;;;;;32.17;15.35;;;;;;;;;;5049387;28;20156;-80
2023/02/10 04:25:49;;;;;;;31.60;15.25;;;;;;;;;;5051750;28;20049;-80
2023/02/10 04:28:17;;;;;;;35.05;15.48;;;;;;;;;;5042236;28;20114;-77
2023/02/10 04:30:43;;;;;;;32.67;15.80;;;;;;;;;;5042791;28;20168;-79
2023/02/10 04:33:10;;;;;;;32.45;15.35;;;;;;;;;;5039510;28;20052;-79
2023/02/10 04:35:37;;;;;;;37.67;17.45;;;;;;;;;;5039799;28;20073;-79
2023/02/10 04:38:04;;;;;;;26.13;13.88;;;;;;;;;;5038179;28;20137;-78
2023/02/10 04:40:31;;;;;;;33.47;14.25;;;;;;;;;;5037311;28;20050;-78
2023/02/10 04:42:57;;;;;;;31.85;14.77;;;;;;;;;;5039410;28;20053;-79
2023/02/10 04:45:25;;;;;;;29.88;13.98;;;;;;;;;;5038696;28;20081;-77
2023/02/10 04:47:52;;;;;;;30.08;13.23;;;;;;;;;;5037405;28;20133;-77
2023/02/10 04:50:19;;;;;;;27.25;13.82;;;;;;;;;;5037786;28;20558;-78
2023/02/10 04:52:46;;;;;;;26.77;12.63;;;;;;;;;;5037676;28;20620;-78
2023/02/10 04:55:12;;;;;;;34.50;14.05;;;;;;;;;;5038012;28;20057;-78
2023/02/10 04:57:39;;;;;;;26.83;13.68;;;;;;;;;;5037838;28;20056;-78
2023/02/10 05:00:07;;;;;;;30.77;14.32;;;;;;;;;;5037298;28;20133;-78
2023/02/10 05:02:35;;;;;;;26.25;13.57;;;;;;;;;;5036954;28;20129;-78
2023/02/10 05:05:01;;;;;;;23.70;12.52;;;;;;;;;;5036445;28;20137;-78
2023/02/10 05:07:31;;;;;;;31.27;13.05;;;;;;;;;;5037550;28;20385;-78
2023/02/10 05:09:58;;;;;;;23.55;11.68;;;;;;;;;;5038073;28;20103;-78
2023/02/10 05:12:25;;;;;;;27.08;12.55;;;;;;;;;;5037394;28;20108;-78
2023/02/10 05:14:52;;;;;;;26.05;13.32;;;;;;;;;;5037226;28;20439;-77
2023/02/10 05:17:18;;;;;;;26.02;12.43;;;;;;;;;;5037334;28;20045;-79
2023/02/10 05:19:47;;;;;;;26.70;12.48;;;;;;;;;;5037841;28;20049;-78
2023/02/10 05:22:13;;;;;;;24.10;12.40;;;;;;;;;;5037075;28;20081;-78
2023/02/10 05:24:40;;;;;;;24.67;12.73;;;;;;;;;;5036574;28;20047;-78
2023/02/10 05:27:06;;;;;;;28.33;14.52;;;;;;;;;;5036312;28;20469;-78
2023/02/10 05:29:33;;;;;;;25.15;13.35;;;;;;;;;;5035852;28;20124;-78
2023/02/10 05:32:00;;;;;;;31.73;14.20;;;;;;;;;;5037918;28;20053;-78
2023/02/10 05:34:27;;;;;;;25.45;13.10;;;;;;;;;;5036434;28;20063;-78
2023/02/10 05:36:55;;;;;;;27.13;13.05;;;;;;;;;;5037693;28;20052;-78
2023/02/10 05:39:24;;;;;;;26.35;13.68;;;;;;;;;;5037864;28;20073;-77
2023/02/10 05:41:51;;;;;;;25.30;13.18;;;;;;;;;;5034655;28;20049;-79
2023/02/10 05:44:18;;;;;;;27.92;13.77;;;;;;;;;;5036037;28;20113;-78
2023/02/10 05:46:45;;;;;;;26.52;12.30;;;;;;;;;;5037060;28;20133;-79
2023/02/10 05:49:12;;;;;;;28.58;13.75;;;;;;;;;;5038020;28;20045;-78
2023/02/10 05:51:39;;;;;;;27.27;13.15;;;;;;;;;;5048459;28;20129;-78
2023/02/10 05:54:07;;;;;;;26.33;12.40;;;;;;;;;;5047659;28;20157;-78
2023/02/10 05:56:34;;;;;;;25.77;12.45;;;;;;;;;;5045053;28;20099;-80
2023/02/10 05:59:00;;;;;;;26.20;12.15;;;;;;;;;;5038370;28;20045;-78
2023/02/10 06:01:27;;;;;;;24.35;12.55;;;;;;;;;;5038520;28;20076;-79
2023/02/10 06:03:54;;;;;;;27.55;12.85;;;;;;;;;;5037512;28;20049;-79
2023/02/10 06:06:20;;;;;;;25.85;12.10;;;;;;;;;;5052078;28;20105;-79
2023/02/10 06:08:47;;;;;;;23.42;12.35;;;;;;;;;;5044288;28;20524;-79
2023/02/10 06:11:15;;;;;;;22.17;12.35;;;;;;;;;;5037939;28;20133;-79
2023/02/10 06:13:42;;;;;;;25.02;11.98;;;;;;;;;;5038236;28;20500;-80
2023/02/10 06:16:11;;;;;;;29.70;14.88;;;;;;;;;;5038109;28;20057;-77
2023/02/10 06:18:37;;;;;;;28.77;15.10;;;;;;;;;;5038051;28;20049;-79
2023/02/10 06:21:04;;;;;;;31.05;15.68;;;;;;;;;;5037970;28;20049;-79
2023/02/10 06:23:31;;;;;;;37.47;16.60;;;;;;;;;;5039170;28;20550;-81
2023/02/10 06:25:58;;;;;;;36.15;15.30;;;;;;;;;;5039003;28;20045;-80
2023/02/10 06:28:28;;;;;;;30.38;15.80;;;;;;;;;;5038902;28;20246;-78
2023/02/10 06:30:55;;;;;;;33.97;16.42;;;;;;;;;;5043509;28;20061;-78
2023/02/10 06:33:22;;;;;;;32.53;15.10;;;;;;;;;;5045689;28;20064;-81
2023/02/10 06:35:49;;;;;;;30.27;15.52;;;;;;;;;;5039667;28;20081;-80
2023/02/10 06:38:16;;;;;;;29.30;13.90;;;;;;;;;;5039344;28;20076;-77
2023/02/10 06:40:43;;;;;;;33.45;15.57;;;;;;;;;;5040144;28;20045;-78
2023/02/10 06:43:10;;;;;;;35.50;15.57;;;;;;;;;;5039780;28;20199;-78
2023/02/10 06:45:38;;;;;;;29.23;15.55;;;;;;;;;;5042711;28;20049;-78
2023/02/10 06:48:05;;;;;;;32.15;15.27;;;;;;;;;;5025787;28;20092;-78
2023/02/10 06:50:32;;;;;;;31.13;15.30;;;;;;;;;;5034394;28;20049;-79
2023/02/10 06:52:59;;;;;;;34.33;14.95;;;;;;;;;;5033817;28;20077;-78
2023/02/10 06:55:26;;;;;;;41.53;17.42;;;;;;;;;;5033268;28;20060;-78
2023/02/10 06:57:52;;;;;;;29.67;14.38;;;;;;;;;;5033887;28;20049;-78
2023/02/10 07:00:20;;;;;;;34.60;15.45;;;;;;;;;;5038000;28;20084;-86
2023/02/10 07:02:48;;;;;;;32.17;15.30;;;;;;;;;;5036353;28;20076;-75
2023/02/10 07:05:14;;;;;;;40.70;14.98;;;;;;;;;;5034799;28;20080;-78
2023/02/10 07:07:41;;;;;;;31.13;15.38;;;;;;;;;;5037575;28;20053;-78
2023/02/10 07:10:09;;;;;;;35.17;16.02;;;;;;;;;;5035127;28;20073;-81
2023/02/10 07:12:36;;;;;;;31.13;15.70;;;;;;;;;;5034091;28;20570;-78
2023/02/10 07:15:03;;;;;;;33.25;14.73;;;;;;;;;;5034752;28;20125;-78
2023/02/10 07:17:30;;;;;;;32.97;15.02;;;;;;;;;;5033624;28;20049;-79
2023/02/10 07:19:58;;;;;;;32.20;14.25;;;;;;;;;;5034692;28;20430;-78
2023/02/10 07:22:25;;;;;;;30.90;14.30;;;;;;;;;;5036425;28;20084;-77
2023/02/10 07:24:51;;;;;;;35.35;14.55;;;;;;;;;;5035657;28;20081;-79
2023/02/10 07:27:18;;;;;;;25.98;13.48;;;;;;;;;;5036164;28;20132;-79
2023/02/10 07:29:45;;;;;;;29.20;14.02;;;;;;;;;;5034549;28;20416;-79
2023/02/10 07:32:12;;;;;;;33.65;14.57;;;;;;;;;;5034929;28;20073;-79
2023/02/10 07:34:40;;;;;;;32.30;14.52;;;;;;;;;;5033639;28;20052;-78
2023/02/10 07:37:09;;;;;;;34.85;15.38;;;;;;;;;;5072790;22;20384;-76
2023/02/10 07:39:35;;;;;;;33.60;15.02;;;;;;;;;;5072186;28;20136;-76
2023/02/10 07:42:02;;;;;;;28.45;13.60;;;;;;;;;;5072486;28;20131;-76
2023/02/10 07:44:29;;;;;;;26.70;13.57;;;;;;;;;;5078296;28;20040;-76
2023/02/10 07:46:55;;;;;;;27.13;13.68;;;;;;;;;;5078286;28;20090;-76
2023/02/10 07:49:22;;;;;;;26.50;12.40;;;;;;;;;;5078831;28;20060;-76
2023/02/10 07:51:48;;;;;;;26.98;13.50;;;;;;;;;;5080227;28;20075;-76
2023/02/10 07:54:16;;;;;;;27.65;12.95;;;;;;;;;;5080130;28;20049;-75
2023/02/10 07:56:43;;;;;;;29.55;12.75;;;;;;;;;;5078780;28;20443;-75
2023/02/10 07:59:10;;;;;;;26.58;12.45;;;;;;;;;;5078750;28;20053;-76
2023/02/10 08:01:41;;;;;;;27.63;11.98;;;;;;;;;;5078070;28;20406;-75
2023/02/10 08:04:08;;;;;;;22.63;12.05;;;;;;;;;;5078841;28;20047;-75
2023/02/10 08:06:34;;;;;;;29.13;12.23;;;;;;;;;;5078395;28;20459;-75
2023/02/10 08:09:01;;;;;;;25.15;12.40;;;;;;;;;;5078629;28;20392;-75
2023/02/10 08:11:29;;;;;;;26.15;11.85;;;;;;;;;;5077893;28;20562;-74
2023/02/10 08:13:56;;;;;;;27.13;12.68;;;;;;;;;;5078099;28;20045;-74
2023/02/10 08:16:23;;;;;;;26.70;10.98;;;;;;;;;;5078711;28;20131;-74
2023/02/10 08:18:49;;;;;;;24.77;12.00;;;;;;;;;;5078121;28;20549;-76
2023/02/10 08:21:16;;;;;;;24.95;11.45;;;;;;;;;;5078155;28;20090;-75
2023/02/10 08:23:43;;;;;;;27.52;12.40;;;;;;;;;;5077825;28;20055;-75
2023/02/10 08:26:12;;;;;;;24.55;11.57;;;;;;;;;;5078622;28;20064;-74
2023/02/10 08:28:41;;;;;;;26.70;12.60;;;;;;;;;;5078052;28;20091;-76
2023/02/10 08:31:10;;;;;;;24.70;12.88;;;;;;;;;;5078510;28;20052;-75
2023/02/10 08:33:37;;;;;;;28.33;12.88;;;;;;;;;;5077788;28;20465;-75
2023/02/10 08:36:05;;;;;;;27.35;12.55;;;;;;;;;;5078079;28;20600;-77
2023/02/10 08:38:33;;;;;;;24.33;11.90;;;;;;;;;;5078093;28;20052;-77
2023/02/10 08:40:59;;;;;;;26.90;12.35;;;;;;;;;;5077895;28;20060;-74
2023/02/10 08:43:26;;;;;;;26.08;12.63;;;;;;;;;;5077577;28;20049;-77
2023/02/10 08:45:56;;;;;;;27.85;11.85;;;;;;;;;;5078234;28;20118;-76
2023/02/10 08:48:23;;;;;;;23.48;11.30;;;;;;;;;;5078559;28;20136;-76
2023/02/10 08:50:50;;;;;;;24.73;11.07;;;;;;;;;;5078787;28;20056;-75
2023/02/10 08:53:16;;;;;;;24.88;12.05;;;;;;;;;;5078784;28;20557;-76
2023/02/10 08:55:43;;;;;;;27.58;12.07;;;;;;;;;;5081269;28;20040;-76
2023/02/10 08:58:10;;;;;;;26.13;12.23;;;;;;;;;;5076655;28;20106;-75
2023/02/10 09:00:37;;;;;;;28.38;11.68;;;;;;;;;;5077474;28;20060;-74
2023/02/10 09:03:05;;;;;;;28.15;11.95;;;;;;;;;;5075545;28;20127;-75
2023/02/10 09:05:36;;;;;;;28.83;13.13;;;;;;;;;;5074835;28;20116;-73
2023/02/10 09:08:03;;;;;;;28.42;12.02;;;;;;;;;;5074628;28;20044;-76
2023/02/10 09:10:30;;;;;;;29.05;12.65;;;;;;;;;;5074355;28;20510;-76
2023/02/10 09:12:57;;;;;;;29.50;13.38;;;;;;;;;;5074919;28;20049;-75
2023/02/10 09:15:24;;;;;;;27.90;13.48;;;;;;;;;;5074505;28;20048;-75
2023/02/10 09:17:50;;;;;;;29.73;12.95;;;;;;;;;;5074237;28;20060;-75
2023/02/10 09:20:19;;;;;;;33.50;14.48;;;;;;;;;;5074152;28;20051;-74
2023/02/10 09:22:47;;;;;;;30.52;13.75;;;;;;;;;;5074284;28;20495;-74
2023/02/10 09:25:14;;;;;;;35.35;14.75;;;;;;;;;;5077421;28;20053;-76
2023/02/10 09:27:41;;;;;;;33.50;14.82;;;;;;;;;;5078950;28;20395;-75
2023/02/10 09:30:09;;;;;;;33.63;15.38;;;;;;;;;;5079616;28;20104;-75
2023/02/10 09:32:35;;;;;;;30.70;15.15;;;;;;;;;;5076199;28;20041;-75
2023/02/10 09:35:02;;;;;;;33.35;14.02;;;;;;;;;;5077091;28;20144;-76
2023/02/10 09:37:30;;;;;;;36.65;16.55;;;;;;;;;;5079755;28;20510;-77
2023/02/10 09:39:57;;;;;;;39.03;16.40;;;;;;;;;;5078668;28;20058;-75
2023/02/10 09:42:30;;;;;;;38.70;17.27;;;;;;;;;;5075451;28;20356;-75
2023/02/10 09:45:03;;;;;;;40.30;16.50;;;;;;;;;;5076010;28;20131;-75
2023/02/10 09:47:38;;;;;;;37.60;17.98;;;;;;;;;;5075181;28;20044;-75
2023/02/10 09:50:30;;;;;;;40.60;19.65;;;;;;;;;;5074888;28;20131;-75
2023/02/10 09:53:08;;;;;;;42.33;19.73;;;;;;;;;;5075105;28;20055;-75
2023/02/10 09:55:38;;;;;;;41.53;18.65;;;;;;;;;;5075200;28;20079;-75
2023/02/10 09:58:13;;;;;;;42.92;19.27;;;;;;;;;;5074039;28;20561;-75
2023/02/10 10:00:42;;;;;;;39.33;19.58;;;;;;;;;;5074244;28;20150;-76
2023/02/10 10:03:15;;;;;;;48.28;20.25;;;;;;;;;;5075741;28;20102;-75
2023/02/10 10:05:53;;;;;;;46.97;20.92;;;;;;;;;;5073734;28;20123;-75
2023/02/10 10:08:25;;;;;;;38.78;19.75;;;;;;;;;;5075143;28;20131;-76
2023/02/10 10:10:53;;;;;;;45.45;20.10;;;;;;;;;;5073990;28;20136;-75
2023/02/10 10:13:25;;;;;;;46.78;21.55;;;;;;;;;;5073485;28;20049;-77
2023/02/10 10:16:09;;;;;;;50.13;20.92;;;;;;;;;;5075293;28;20144;-75
2023/02/10 10:18:46;;;;;;;46.83;20.65;;;;;;;;;;5073400;28;20044;-75
2023/02/10 10:21:20;;;;;;;52.03;21.25;;;;;;;;;;5075157;28;20122;-75
2023/02/10 10:23:59;;;;;;;46.65;20.23;;;;;;;;;;5073197;28;20119;-77
2023/02/10 10:26:42;;;;;;;41.33;20.63;;;;;;;;;;5073311;28;20044;-75
2023/02/10 10:29:24;;;;;;;44.85;20.65;;;;;;;;;;5075415;28;20048;-77
2023/02/10 10:31:59;;;;;;;47.13;21.25;;;;;;;;;;5073133;28;20059;-75
2023/02/10 10:34:30;;;;;;;43.75;20.75;;;;;;;;;;5072800;28;20135;-75
2023/02/10 10:36:59;;;;;;;41.90;20.30;;;;;;;;;;5073596;28;20048;-76
2023/02/10 10:39:32;;;;;;;47.25;21.00;;;;;;;;;;5074897;28;20102;-75
2023/02/10 10:42:02;;;;;;;39.80;20.55;;;;;;;;;;5073087;28;20051;-76
2023/02/10 10:44:31;;;;;;;47.05;21.20;;;;;;;;;;5075108;28;20415;-76
2023/02/10 10:47:08;;;;;;;49.33;20.95;;;;;;;;;;5073618;28;20052;-76
2023/02/10 10:49:35;;;;;;;51.35;21.63;;;;;;;;;;5073596;28;20044;-76
2023/02/10 10:52:02;;;;;;;51.92;22.40;;;;;;;;;;5073519;28;20174;-77
2023/02/10 10:54:32;;;;;;;48.05;22.85;;;;;;;;;;5073527;28;20058;-75
2023/02/10 10:57:02;;;;;;;49.00;21.95;;;;;;;;;;5074033;28;20053;-75
2023/02/10 10:59:34;;;;;;;47.92;21.85;;;;;;;;;;5073313;28;20051;-75
2023/02/10 11:02:13;;;;;;;48.55;21.75;;;;;;;;;;5073589;28;20053;-76
2023/02/10 11:04:42;;;;;;;45.33;21.35;;;;;;;;;;5074129;28;20201;-75
2023/02/10 11:07:11;;;;;;;47.20;20.52;;;;;;;;;;5072040;28;20048;-75
2023/02/10 11:09:49;;;;;;;50.63;22.92;;;;;;;;;;5072648;28;20060;-77
2023/02/10 11:12:21;;;;;;;47.28;22.08;;;;;;;;;;5073071;28;20052;-76
2023/02/10 11:14:53;;;;;;;47.35;22.92;;;;;;;;;;5072042;28;20414;-76
2023/02/10 11:17:24;;;;;;;48.63;22.33;;;;;;;;;;5071465;28;20056;-76
2023/02/10 11:19:56;;;;;;;47.90;21.13;;;;;;;;;;5072387;28;20113;-76
2023/02/10 11:22:23;;;;;;;48.13;21.48;;;;;;;;;;5071672;28;20044;-75
2023/02/10 11:24:53;;;;;;;46.85;21.65;;;;;;;;;;5072090;28;20133;-75
2023/02/10 11:27:20;;;;;;;48.45;21.83;;;;;;;;;;5072064;28;20045;-75
2023/02/10 11:29:50;;;;;;;49.80;22.15;;;;;;;;;;5071941;28;20048;-75
2023/02/10 11:32:21;;;;;;;46.28;22.38;;;;;;;;;;5071629;28;20063;-74
2023/02/10 11:34:49;;;;;;;52.17;24.52;;;;;;;;;;5072892;28;20044;-75
2023/02/10 11:37:22;;;;;;;47.38;23.23;;;;;;;;;;5072678;28;20048;-74
2023/02/10 11:39:49;;;;;;;41.72;21.67;;;;;;;;;;5073094;28;20045;-76
2023/02/10 11:42:22;;;;;;;50.97;22.60;;;;;;;;;;5072541;28;20071;-76
2023/02/10 11:44:57;;;;;;;43.47;20.67;;;;;;;;;;5073138;28;20059;-75
2023/02/10 11:47:26;;;;;;;43.92;21.67;;;;;;;;;;5071919;28;20127;-75
2023/02/10 11:49:52;;;;;;;41.95;22.58;;;;;;;;;;5071736;28;20049;-75
2023/02/10 11:52:22;;;;;;;42.20;22.02;;;;;;;;;;5071439;28;20048;-76
2023/02/10 11:54:49;;;;;;;46.63;22.90;;;;;;;;;;5071539;28;20053;-75
2023/02/10 12:00:20;;;;;;;44.13;21.52;;;;;;;;;;5071640;28;20059;-75
2023/02/10 12:03:05;;;;;;;41.58;20.95;;;;;;;;;;5071050;28;20417;-75
2023/02/10 12:05:40;;;;;;;42.17;20.35;;;;;;;;;;5071251;28;20074;-76
2023/02/10 12:08:17;;;;;;;43.05;20.17;;;;;;;;;;5071510;28;20132;-75
2023/02/10 12:10:48;;;;;;;45.70;21.23;;;;;;;;;;5071625;28;20157;-76
2023/02/10 12:13:23;;;;;;;43.72;20.63;;;;;;;;;;5071203;28;20132;-76
2023/02/10 12:16:00;;;;;;;41.30;19.42;;;;;;;;;;5071575;28;20473;-76
2023/02/10 12:18:41;;;;;;;42.08;20.30;;;;;;;;;;5071615;28;20080;-76
2023/02/10 12:21:24;;;;;;;40.08;19.13;;;;;;;;;;5071535;28;20044;-76
2023/02/10 12:24:00;;;;;;;40.58;19.77;;;;;;;;;;5071098;28;20394;-76
2023/02/10 12:26:33;;;;;;;40.65;20.40;;;;;;;;;;5072071;28;20076;-77
2023/02/10 12:29:14;;;;;;;46.03;19.20;;;;;;;;;;5072340;28;20059;-75
2023/02/10 12:31:49;;;;;;;42.85;19.63;;;;;;;;;;5075204;28;20356;-75
2023/02/10 12:34:33;;;;;;;43.55;19.08;;;;;;;;;;5074911;28;20072;-75
2023/02/10 12:37:12;;;;;;;43.65;19.92;;;;;;;;;;5074967;28;20140;-74
2023/02/10 12:39:47;;;;;;;39.90;18.08;;;;;;;;;;5075585;28;20560;-74
2023/02/10 12:42:31;;;;;;;37.20;18.80;;;;;;;;;;5075723;28;20132;-75
2023/02/10 12:45:08;;;;;;;39.95;18.17;;;;;;;;;;5075806;28;20064;-75
2023/02/10 12:47:42;;;;;;;43.25;19.42;;;;;;;;;;5076425;28;20082;-75
2023/02/10 12:50:27;;;;;;;43.28;18.42;;;;;;;;;;5075503;28;20040;-75
2023/02/10 12:52:58;;;;;;;40.47;19.27;;;;;;;;;;5075428;28;20054;-75
2023/02/10 12:55:41;;;;;;;39.95;19.90;;;;;;;;;;5075027;28;20418;-75
2023/02/10 12:58:14;;;;;;;38.42;20.08;;;;;;;;;;5074763;28;20051;-75
2023/02/10 13:00:47;;;;;;;45.25;20.20;;;;;;;;;;5074847;28;20075;-75
2023/02/10 13:03:18;;;;;;;38.03;19.85;;;;;;;;;;5074646;28;20044;-74
2023/02/10 13:05:50;;;;;;;43.58;21.10;;;;;;;;;;5074133;28;20554;-75
2023/02/10 13:08:24;;;;;;;36.65;18.27;;;;;;;;;;5074342;28;20483;-75
2023/02/10 13:10:55;;;;;;;39.88;19.80;;;;;;;;;;5074630;28;20102;-75
2023/02/10 13:13:26;;;;;;;35.28;18.63;;;;;;;;;;5074145;28;20056;-75
2023/02/10 13:15:59;;;;;;;38.63;19.48;;;;;;;;;;5074602;28;20131;-75
2023/02/10 13:18:28;;;;;;;35.33;17.65;;;;;;;;;;5074484;28;20560;-75
2023/02/10 13:21:08;;;;;;;37.00;18.17;;;;;;;;;;5074251;28;20048;-76
2023/02/10 13:23:41;;;;;;;33.50;17.67;;;;;;;;;;5073833;28;20140;-76
2023/02/10 13:26:27;;;;;;;36.35;17.15;;;;;;;;;;5074096;28;20559;-76
2023/02/10 13:29:03;;;;;;;34.95;17.27;;;;;;;;;;5074221;28;20051;-76
2023/02/10 13:31:50;;;;;;;36.30;17.38;;;;;;;;;;5074861;28;20041;-74
2023/02/10 13:34:21;;;;;;;36.17;16.85;;;;;;;;;;5074317;28;20045;-75
2023/02/10 13:36:53;;;;;;;31.13;16.17;;;;;;;;;;5091064;22;20059;-78
2023/02/10 13:39:22;;;;;;;40.10;18.48;;;;;;;;;;5099171;28;20131;-80
2023/02/10 13:41:51;;;;;;;39.17;17.88;;;;;;;;;;5099857;28;20101;-79
2023/02/10 13:44:26;;;;;;;29.13;15.90;;;;;;;;;;5099451;28;20425;-79
2023/02/10 13:46:59;;;;;;;35.05;17.52;;;;;;;;;;5100663;28;20050;-79
2023/02/10 13:49:26;;;;;;;33.95;16.95;;;;;;;;;;5102462;28;20072;-81
2023/02/10 13:52:03;;;;;;;36.67;18.75;;;;;;;;;;5102295;28;20061;-79
2023/02/10 13:54:35;;;;;;;36.00;18.30;;;;;;;;;;5102594;28;20044;-80
2023/02/10 13:57:03;;;;;;;31.77;16.80;;;;;;;;;;5100364;28;20087;-79
2023/02/10 13:59:38;;;;;;;36.47;18.85;;;;;;;;;;5097712;28;20048;-80
2023/02/10 14:02:21;;;;;;;34.28;17.90;;;;;;;;;;5098238;28;20115;-80
2023/02/10 14:04:51;;;;;;;29.60;16.70;;;;;;;;;;5095845;28;20040;-78
2023/02/10 14:07:35;;;;;;;34.42;18.50;;;;;;;;;;5079943;28;20418;-81
2023/02/10 14:10:06;;;;;;;37.97;17.55;;;;;;;;;;5079476;28;20103;-79
2023/02/10 14:12:40;;;;;;;38.72;19.13;;;;;;;;;;5080448;28;20104;-78
2023/02/10 14:15:21;;;;;;;38.83;18.50;;;;;;;;;;5077155;28;20056;-81
2023/02/10 14:17:57;;;;;;;34.00;18.27;;;;;;;;;;5082909;28;20057;-79
2023/02/10 14:20:28;;;;;;;32.30;17.05;;;;;;;;;;5077161;28;20456;-77
2023/02/10 14:22:58;;;;;;;34.28;16.42;;;;;;;;;;5077500;28;20080;-78
2023/02/10 14:25:31;;;;;;;36.35;18.73;;;;;;;;;;5076939;28;20054;-80
2023/02/10 14:27:59;;;;;;;36.22;17.63;;;;;;;;;;5075294;28;20594;-79
2023/02/10 14:30:32;;;;;;;39.28;18.73;;;;;;;;;;5076798;28;20068;-79
2023/02/10 14:33:00;;;;;;;33.10;17.02;;;;;;;;;;5082373;28;20075;-79
2023/02/10 14:35:29;;;;;;;36.80;19.23;;;;;;;;;;5079967;28;20510;-79
2023/02/10 14:37:57;;;;;;;37.78;20.17;;;;;;;;;;5079169;28;20049;-78